Time;durP1;ratioP1;P1;durP2;ratioP2;P2;SDS_P1;SDS_P2;PMS_P1;PMS_P2;Temp;Humidity;BMP_temperature;BMP_pressure;BME280_temperature;BME280_humidity;BME280_pressure;Samples;Min_cycle;Max_cycle;Signal;HPM_P1;HPM_P2
2023/01/22 00:01:42;;;;;;;16.30;10.07;;;-1.00;99.90;;;;;;4994682;28;20179;-42
2023/01/22 00:04:09;;;;;;;15.03;9.63;;;-1.00;99.90;;;;;;4993977;28;20201;-42
2023/01/22 00:06:35;;;;;;;16.47;10.60;;;-1.00;99.90;;;;;;4976613;28;20180;-42
2023/01/22 00:09:02;;;;;;;17.97;9.57;;;-1.00;99.90;;;;;;4993505;28;20248;-41
2023/01/22 00:11:28;;;;;;;15.70;10.77;;;-1.00;99.90;;;;;;4995117;28;20180;-42
2023/01/22 00:13:54;;;;;;;17.17;10.17;;;-1.00;99.90;;;;;;4960900;28;20696;-39
2023/01/22 00:16:20;;;;;;;17.23;10.90;;;-1.00;99.90;;;;;;4995026;28;20196;-42
2023/01/22 00:18:46;;;;;;;17.43;10.27;;;-1.00;99.90;;;;;;4976656;28;20219;-42
2023/01/22 00:21:12;;;;;;;15.17;10.10;;;-1.00;99.90;;;;;;4977064;28;20180;-41
2023/01/22 00:23:38;;;;;;;15.50;9.93;;;-1.00;99.90;;;;;;4994083;28;20205;-41
2023/01/22 00:26:10;;;;;;;14.77;9.97;;;-1.00;99.90;;;;;;4994376;28;20181;-42
2023/01/22 00:28:37;;;;;;;16.70;10.87;;;-1.00;99.90;;;;;;4987840;28;20240;-42
2023/01/22 00:31:04;;;;;;;18.33;11.47;;;-1.00;99.90;;;;;;4987742;28;20207;-42
2023/01/22 00:33:31;;;;;;;18.30;12.13;;;-1.00;99.90;;;;;;4993256;28;20259;-42
2023/01/22 00:36:07;;;;;;;18.50;12.13;;;-1.00;99.90;;;;;;4993137;28;20205;-42
2023/01/22 00:38:33;;;;;;;19.23;11.20;;;-1.00;99.90;;;;;;4993334;28;20176;-39
2023/01/22 00:41:04;;;;;;;19.97;12.67;;;-1.00;99.90;;;;;;4960646;28;20182;-40
2023/01/22 00:43:30;;;;;;;19.30;11.77;;;-1.00;99.90;;;;;;4976994;28;20198;-41
2023/01/22 00:45:56;;;;;;;19.60;11.67;;;-1.00;99.90;;;;;;4992795;28;20185;-39
2023/01/22 00:48:22;;;;;;;18.27;11.73;;;-1.00;99.90;;;;;;4992907;28;20184;-39
2023/01/22 00:50:48;;;;;;;18.63;12.10;;;-1.00;99.90;;;;;;4992251;28;20192;-42
2023/01/22 00:53:14;;;;;;;19.40;12.27;;;-1.00;99.90;;;;;;4976505;28;20228;-43
2023/01/22 00:55:48;;;;;;;17.93;11.67;;;-1.00;99.90;;;;;;4960389;28;20179;-42
2023/01/22 00:58:14;;;;;;;18.07;11.40;;;-1.00;99.90;;;;;;4976752;28;20183;-42
2023/01/22 01:00:40;;;;;;;19.50;11.37;;;-1.00;99.90;;;;;;4983379;28;20187;-41
2023/01/22 01:05:50;;;;;;;17.30;11.33;;;-1.00;99.90;;;;;;4990020;28;20188;-41
2023/01/22 01:08:16;;;;;;;17.83;11.17;;;-1.00;99.90;;;;;;4993044;28;20207;-42
2023/01/22 01:10:43;;;;;;;19.13;11.70;;;-1.00;99.90;;;;;;4995828;28;20192;-42
2023/01/22 01:13:10;;;;;;;21.33;11.97;;;-1.00;99.90;;;;;;4979016;28;20220;-41
2023/01/22 01:15:36;;;;;;;19.97;12.43;;;-1.00;99.90;;;;;;4981052;28;20204;-39
2023/01/22 01:18:03;;;;;;;19.70;11.83;;;-1.00;99.90;;;;;;4993894;28;20218;-39
2023/01/22 01:20:29;;;;;;;19.37;11.80;;;-1.00;99.90;;;;;;4958245;28;20180;-42
2023/01/22 01:22:55;;;;;;;17.50;11.40;;;-1.00;99.90;;;;;;4992033;28;20228;-39
2023/01/22 01:25:20;;;;;;;17.07;10.90;;;-1.00;99.90;;;;;;4992397;28;20201;-41
2023/01/22 01:27:46;;;;;;;19.33;11.67;;;-1.00;99.90;;;;;;4990117;28;20265;-42
2023/01/22 01:30:12;;;;;;;17.77;11.33;;;-1.00;99.90;;;;;;4984544;28;20206;-41
2023/01/22 01:32:38;;;;;;;18.37;11.00;;;-1.00;99.90;;;;;;4972534;28;20288;-40
2023/01/22 01:35:05;;;;;;;17.17;11.17;;;-1.00;99.90;;;;;;4991720;28;20185;-41
2023/01/22 01:37:31;;;;;;;19.10;10.67;;;-1.00;99.90;;;;;;4991742;28;20181;-42
2023/01/22 01:39:57;;;;;;;18.50;11.27;;;-1.00;99.90;;;;;;4975758;28;20188;-42
2023/01/22 01:42:31;;;;;;;17.70;10.97;;;-1.00;99.90;;;;;;4993506;28;20172;-42
2023/01/22 01:45:18;;;;;;;16.17;11.27;;;-0.90;99.90;;;;;;4975347;28;20195;-41
2023/01/22 01:47:47;;;;;;;18.00;11.43;;;-1.00;99.90;;;;;;4991782;28;20185;-42
2023/01/22 01:50:13;;;;;;;18.73;11.63;;;-1.00;99.90;;;;;;4991619;28;20228;-41
2023/01/22 01:52:39;;;;;;;19.27;11.77;;;-1.00;99.90;;;;;;4975483;28;20200;-41
2023/01/22 01:55:06;;;;;;;16.30;10.33;;;-0.90;99.90;;;;;;4992721;28;20187;-42
2023/01/22 01:57:33;;;;;;;18.10;11.23;;;-0.90;99.90;;;;;;4992812;28;20247;-41
2023/01/22 02:00:00;;;;;;;16.97;11.43;;;-1.00;99.90;;;;;;4983839;28;20271;-41
2023/01/22 02:02:26;;;;;;;14.97;9.23;;;-1.00;99.90;;;;;;4977888;28;20177;-41
2023/01/22 02:04:53;;;;;;;15.17;9.70;;;-1.00;99.90;;;;;;4978455;28;20238;-41
2023/01/22 02:07:19;;;;;;;14.80;8.83;;;-1.00;99.90;;;;;;4974417;28;20211;-41
2023/01/22 02:09:45;;;;;;;15.40;9.90;;;-1.00;99.90;;;;;;4974162;28;20194;-42
2023/01/22 02:12:12;;;;;;;14.30;9.27;;;-0.90;99.90;;;;;;4990566;28;20295;-41
2023/01/22 02:14:42;;;;;;;13.80;8.90;;;-0.90;99.90;;;;;;4990997;28;20216;-42
2023/01/22 02:17:11;;;;;;;16.87;9.20;;;-0.90;99.90;;;;;;4991361;28;20172;-42
2023/01/22 02:19:38;;;;;;;15.50;9.60;;;-0.90;99.90;;;;;;4987731;28;20188;-41
2023/01/22 02:22:14;;;;;;;15.80;9.23;;;-0.90;99.90;;;;;;4971856;28;20177;-41
2023/01/22 02:24:40;;;;;;;14.93;9.63;;;-0.90;99.90;;;;;;4966212;28;20324;-42
2023/01/22 02:27:07;;;;;;;17.33;11.03;;;-0.90;99.90;;;;;;4975075;28;20189;-41
2023/01/22 02:29:34;;;;;;;14.30;9.83;;;-0.90;99.90;;;;;;4973668;28;20264;-42
2023/01/22 02:32:00;;;;;;;14.17;9.27;;;-0.90;99.90;;;;;;4991367;28;20183;-41
2023/01/22 02:34:26;;;;;;;13.97;9.20;;;-0.90;99.90;;;;;;4990684;28;20208;-42
2023/01/22 02:36:53;;;;;;;14.40;8.77;;;-0.80;99.90;;;;;;4990556;28;20178;-41
2023/01/22 02:39:19;;;;;;;13.83;9.23;;;-0.80;99.90;;;;;;4973798;28;20172;-40
2023/01/22 02:41:45;;;;;;;15.60;9.70;;;-0.80;99.90;;;;;;4958523;28;20547;-42
2023/01/22 02:44:12;;;;;;;14.87;9.23;;;-0.80;99.90;;;;;;4990778;28;20223;-40
2023/01/22 02:46:38;;;;;;;14.23;9.67;;;-0.80;99.90;;;;;;4991130;28;20178;-42
2023/01/22 02:49:04;;;;;;;16.47;10.80;;;-0.70;99.90;;;;;;4990440;28;20664;-40
2023/01/22 02:51:31;;;;;;;15.60;9.60;;;-0.80;99.90;;;;;;4974724;28;20219;-42
2023/01/22 02:53:57;;;;;;;16.40;9.77;;;-0.80;99.90;;;;;;4973345;28;20231;-42
2023/01/22 02:56:23;;;;;;;17.20;10.90;;;-0.80;99.90;;;;;;4990818;28;20226;-42
2023/01/22 02:58:49;;;;;;;15.70;10.07;;;-0.80;99.90;;;;;;4990206;28;20242;-41
2023/01/22 03:01:21;;;;;;;14.70;9.87;;;-0.70;99.90;;;;;;4987320;28;20177;-41
2023/01/22 03:03:51;;;;;;;13.73;8.93;;;-0.80;99.90;;;;;;4974336;28;20210;-42
2023/01/22 03:06:22;;;;;;;15.20;9.87;;;-0.80;99.90;;;;;;4974562;28;20193;-42
2023/01/22 03:08:49;;;;;;;14.07;9.47;;;-0.80;99.90;;;;;;4974406;28;20176;-39
2023/01/22 03:11:15;;;;;;;15.07;10.13;;;-0.70;99.90;;;;;;4990442;28;20185;-41
2023/01/22 03:21:56;;;;;;;17.70;10.57;;;-0.70;99.90;;;;;;4973980;28;20176;-42
2023/01/22 03:24:22;;;;;;;15.47;9.87;;;-0.70;99.90;;;;;;4990591;28;20196;-42
2023/01/22 03:26:47;;;;;;;17.80;10.70;;;-0.70;99.90;;;;;;4990048;28;20204;-42
2023/01/22 03:29:13;;;;;;;16.43;11.07;;;-0.70;99.90;;;;;;4966555;28;20250;-42
2023/01/22 03:31:39;;;;;;;16.63;10.83;;;-0.70;99.90;;;;;;4989963;28;20268;-42
2023/01/22 03:34:05;;;;;;;15.97;11.10;;;-0.70;99.90;;;;;;4973622;28;20228;-42
2023/01/22 03:36:32;;;;;;;15.93;11.50;;;-0.80;99.90;;;;;;4989720;28;20185;-41
2023/01/22 03:39:02;;;;;;;16.83;11.00;;;-0.80;99.90;;;;;;4990201;28;20276;-42
2023/01/22 03:41:28;;;;;;;17.23;11.57;;;-0.80;99.90;;;;;;4989980;28;20273;-42
2023/01/22 03:43:54;;;;;;;17.10;11.37;;;-0.80;99.90;;;;;;4973414;28;20303;-38
2023/01/22 03:46:24;;;;;;;18.00;11.63;;;-0.70;99.90;;;;;;4989847;28;20179;-42
2023/01/22 03:48:54;;;;;;;18.73;11.77;;;-0.80;99.90;;;;;;4970187;28;20237;-41
2023/01/22 03:51:21;;;;;;;18.10;11.50;;;-0.80;99.90;;;;;;4970960;28;20182;-40
2023/01/22 03:53:47;;;;;;;19.23;11.90;;;-0.80;99.90;;;;;;4983100;28;20216;-42
2023/01/22 03:56:18;;;;;;;17.77;12.23;;;-0.80;99.90;;;;;;4974110;28;20235;-42
2023/01/22 03:58:45;;;;;;;19.63;11.90;;;-0.70;99.90;;;;;;4969546;28;20180;-42
2023/01/22 04:01:17;;;;;;;17.70;11.30;;;-0.80;99.90;;;;;;4971983;28;20177;-42
2023/01/22 04:03:43;;;;;;;18.50;11.23;;;-0.80;99.90;;;;;;4989874;28;20200;-42
2023/01/22 04:06:11;;;;;;;19.20;11.60;;;-0.80;99.90;;;;;;4992906;28;20184;-40
2023/01/22 04:08:39;;;;;;;16.70;10.57;;;-0.70;99.90;;;;;;4993685;28;20184;-42
2023/01/22 04:11:05;;;;;;;16.70;11.03;;;-0.70;99.90;;;;;;4977357;28;20193;-42
2023/01/22 04:13:33;;;;;;;16.20;11.03;;;-0.70;99.90;;;;;;4993319;28;20204;-41
2023/01/22 04:15:59;;;;;;;17.97;11.90;;;-0.70;99.90;;;;;;4977160;28;20205;-42
2023/01/22 04:18:54;;;;;;;20.43;12.00;;;-0.70;99.90;;;;;;4958119;28;20179;-42
2023/01/22 04:21:40;;;;;;;19.53;12.50;;;-0.70;99.90;;;;;;4994344;28;20219;-42
2023/01/22 04:24:08;;;;;;;17.23;10.93;;;-0.70;99.90;;;;;;4977078;28;20201;-41
2023/01/22 04:26:34;;;;;;;17.47;11.83;;;-0.70;99.90;;;;;;4990442;28;20186;-42
2023/01/22 04:29:01;;;;;;;17.23;11.17;;;-0.70;99.90;;;;;;4968223;28;20192;-40
2023/01/22 04:31:28;;;;;;;19.40;11.53;;;-0.70;99.90;;;;;;4975207;28;20186;-41
2023/01/22 04:34:14;;;;;;;18.07;11.80;;;-0.70;99.90;;;;;;4969244;28;20235;-41
2023/01/22 04:36:44;;;;;;;18.40;12.07;;;-0.70;99.90;;;;;;4957809;28;20181;-41
2023/01/22 04:39:10;;;;;;;18.60;11.50;;;-0.70;99.90;;;;;;4973663;28;20184;-42
2023/01/22 04:41:36;;;;;;;18.90;11.70;;;-0.70;99.90;;;;;;4992190;28;20193;-42
2023/01/22 04:44:02;;;;;;;19.93;12.27;;;-0.70;99.90;;;;;;4976916;28;20200;-42
2023/01/22 04:46:30;;;;;;;17.83;11.53;;;-0.70;99.90;;;;;;4992920;28;20643;-41
2023/01/22 04:48:56;;;;;;;21.90;13.30;;;-0.70;99.90;;;;;;4976275;28;20188;-41
2023/01/22 04:51:22;;;;;;;17.93;11.60;;;-0.70;99.90;;;;;;4976443;28;20200;-39
2023/01/22 04:53:48;;;;;;;18.77;12.47;;;-0.70;99.90;;;;;;4992715;28;20219;-41
2023/01/22 04:56:13;;;;;;;19.60;12.77;;;-0.70;99.90;;;;;;4976668;28;20242;-42
2023/01/22 04:58:41;;;;;;;20.87;12.70;;;-0.70;99.90;;;;;;4967523;28;20176;-42
2023/01/22 05:01:07;;;;;;;23.43;13.70;;;-0.70;99.90;;;;;;4976220;28;20242;-42
2023/01/22 05:03:33;;;;;;;22.20;13.57;;;-0.70;99.90;;;;;;4976447;28;20204;-42
2023/01/22 05:06:03;;;;;;;19.77;12.07;;;-0.70;99.90;;;;;;4972355;28;20188;-41
2023/01/22 05:08:29;;;;;;;19.10;12.43;;;-0.70;99.90;;;;;;4992428;28;20191;-41
2023/01/22 05:11:00;;;;;;;19.77;13.07;;;-0.70;99.90;;;;;;4992491;28;20177;-42
2023/01/22 05:13:28;;;;;;;23.33;13.23;;;-0.70;99.90;;;;;;4976661;28;20208;-42
2023/01/22 05:15:55;;;;;;;17.97;11.77;;;-0.70;99.90;;;;;;4976394;28;20238;-42
2023/01/22 05:18:22;;;;;;;19.40;12.43;;;-0.70;99.90;;;;;;4975186;28;20182;-42
2023/01/22 05:20:50;;;;;;;20.47;12.37;;;-0.70;99.90;;;;;;4976045;28;20199;-42
2023/01/22 05:23:17;;;;;;;20.00;13.03;;;-0.70;99.90;;;;;;4992325;28;20209;-42
2023/01/22 05:25:48;;;;;;;21.63;13.90;;;-0.60;99.90;;;;;;4975700;28;20268;-42
2023/01/22 05:28:15;;;;;;;19.70;12.43;;;-0.60;99.90;;;;;;4963997;28;20186;-42
2023/01/22 05:31:01;;;;;;;22.33;13.33;;;-0.60;99.90;;;;;;4992312;28;20239;-42
2023/01/22 05:33:47;;;;;;;20.07;11.93;;;-0.60;99.90;;;;;;4982545;28;20225;-37
2023/01/22 05:36:14;;;;;;;20.47;12.53;;;-0.60;99.90;;;;;;4976029;28;20206;-40
2023/01/22 05:38:41;;;;;;;20.33;12.53;;;-0.60;99.90;;;;;;4991800;28;20581;-36
2023/01/22 05:41:08;;;;;;;19.03;12.73;;;-0.60;99.90;;;;;;4959517;28;20181;-39
2023/01/22 05:43:37;;;;;;;18.90;12.20;;;-0.60;99.90;;;;;;4975541;28;20228;-36
2023/01/22 05:46:04;;;;;;;20.10;13.00;;;-0.50;99.90;;;;;;4991974;28;20200;-38
2023/01/22 05:48:45;;;;;;;18.43;11.90;;;-0.50;99.90;;;;;;4975316;28;20225;-39
2023/01/22 05:51:18;;;;;;;19.13;12.30;;;-0.50;99.90;;;;;;4991335;28;20204;-39
2023/01/22 05:53:44;;;;;;;19.70;12.30;;;-0.50;99.90;;;;;;4990678;28;20241;-37
2023/01/22 05:56:11;;;;;;;19.23;11.83;;;-0.60;99.90;;;;;;4993490;28;20269;-36
2023/01/22 05:58:38;;;;;;;20.07;13.17;;;-0.50;99.90;;;;;;4985976;28;20194;-38
2023/01/22 06:01:05;;;;;;;20.20;13.00;;;-0.50;99.90;;;;;;4990315;28;20196;-38
2023/01/22 06:03:38;;;;;;;17.77;12.43;;;-0.50;99.90;;;;;;4978042;28;20246;-39
2023/01/22 06:06:09;;;;;;;21.13;13.43;;;-0.50;99.90;;;;;;4961982;28;20200;-35
2023/01/22 06:08:37;;;;;;;21.97;13.43;;;-0.50;99.90;;;;;;4960929;28;20182;-37
2023/01/22 06:11:06;;;;;;;19.17;13.60;;;-0.50;99.90;;;;;;4976778;28;20225;-35
2023/01/22 06:13:33;;;;;;;21.53;13.57;;;-0.50;99.90;;;;;;4973142;28;20245;-37
2023/01/22 06:16:07;;;;;;;21.30;14.73;;;-0.50;99.90;;;;;;4988669;28;20170;-40
2023/01/22 06:18:54;;;;;;;22.03;13.10;;;-0.50;99.90;;;;;;4961863;28;20244;-39
2023/01/22 06:21:21;;;;;;;20.27;13.37;;;-0.50;99.90;;;;;;4974010;28;20178;-40
2023/01/22 06:23:47;;;;;;;23.07;14.10;;;-0.50;99.90;;;;;;4990480;28;20289;-39
2023/01/22 06:26:13;;;;;;;21.57;13.23;;;-0.50;99.90;;;;;;4990130;28;20275;-36
2023/01/22 06:28:40;;;;;;;19.30;12.53;;;-0.50;99.90;;;;;;4968805;28;20222;-40
2023/01/22 06:31:06;;;;;;;18.70;12.43;;;-0.50;99.90;;;;;;4979575;28;20221;-38
2023/01/22 06:33:36;;;;;;;23.50;13.07;;;-0.50;99.90;;;;;;4974025;28;20218;-37
2023/01/22 06:36:03;;;;;;;19.97;12.63;;;-0.50;99.90;;;;;;4968450;28;20259;-38
2023/01/22 06:38:30;;;;;;;18.93;11.80;;;-0.50;99.90;;;;;;4955975;28;20209;-38
2023/01/22 06:41:00;;;;;;;21.37;13.83;;;-0.50;99.90;;;;;;4975002;28;20203;-36
2023/01/22 06:43:27;;;;;;;19.80;13.67;;;-0.50;99.90;;;;;;4972831;28;20223;-37
2023/01/22 06:45:54;;;;;;;21.67;14.00;;;-0.50;99.90;;;;;;4974682;28;20231;-38
2023/01/22 06:48:30;;;;;;;22.73;14.00;;;-0.50;99.90;;;;;;4990842;28;20185;-37
2023/01/22 06:50:58;;;;;;;19.73;13.10;;;-0.50;99.90;;;;;;4958384;28;20189;-42
2023/01/22 06:53:24;;;;;;;22.10;13.60;;;-0.50;99.90;;;;;;4976230;28;20218;-42
2023/01/22 06:55:50;;;;;;;20.73;12.97;;;-0.50;99.90;;;;;;4972883;28;20184;-42
2023/01/22 06:58:17;;;;;;;19.83;13.00;;;-0.50;99.90;;;;;;4962131;28;20188;-42
2023/01/22 07:00:42;;;;;;;19.10;12.37;;;-0.50;99.90;;;;;;4973840;28;20237;-40
2023/01/22 07:03:08;;;;;;;18.37;12.83;;;-0.40;99.90;;;;;;4974233;28;20241;-43
2023/01/22 07:05:34;;;;;;;21.03;13.70;;;-0.40;99.90;;;;;;4992018;28;20180;-42
2023/01/22 07:08:00;;;;;;;22.43;13.67;;;-0.40;99.90;;;;;;4990545;28;20185;-42
2023/01/22 07:10:26;;;;;;;21.03;13.97;;;-0.40;99.90;;;;;;4974304;28;20265;-42
2023/01/22 07:13:00;;;;;;;19.17;12.67;;;-0.40;99.90;;;;;;4988000;28;20269;-42
2023/01/22 07:15:27;;;;;;;18.90;12.50;;;-0.40;99.90;;;;;;4983666;28;20177;-38
2023/01/22 07:17:53;;;;;;;21.40;13.00;;;-0.40;99.90;;;;;;4977364;28;20249;-37
2023/01/22 07:20:21;;;;;;;19.93;12.37;;;-0.40;99.90;;;;;;4958094;28;20596;-35
2023/01/22 07:22:47;;;;;;;22.67;14.00;;;-0.40;99.90;;;;;;4972537;28;20221;-36
2023/01/22 07:25:13;;;;;;;20.80;13.03;;;-0.40;99.90;;;;;;4960394;28;20178;-39
2023/01/22 07:27:39;;;;;;;18.47;12.67;;;-0.40;99.90;;;;;;4971538;28;20194;-39
2023/01/22 07:30:06;;;;;;;20.07;12.87;;;-0.40;99.90;;;;;;4966028;28;20172;-40
2023/01/22 07:32:31;;;;;;;23.90;13.83;;;-0.40;99.90;;;;;;4975055;28;20182;-39
2023/01/22 07:34:57;;;;;;;20.33;13.30;;;-0.40;99.90;;;;;;4972775;28;20280;-39
2023/01/22 07:37:23;;;;;;;24.43;14.07;;;-0.30;99.90;;;;;;4973413;28;20187;-38
2023/01/22 07:39:49;;;;;;;21.83;13.23;;;-0.30;99.90;;;;;;4991410;28;20180;-40
2023/01/22 07:42:15;;;;;;;21.77;13.70;;;-0.40;99.90;;;;;;4978079;28;20258;-42
2023/01/22 07:44:40;;;;;;;20.80;14.17;;;-0.30;99.90;;;;;;4978265;28;20212;-42
2023/01/22 07:47:06;;;;;;;22.20;13.60;;;-0.30;99.90;;;;;;4977833;28;20216;-42
2023/01/22 07:49:32;;;;;;;20.90;14.10;;;-0.30;99.90;;;;;;4994884;28;20188;-42
2023/01/22 07:51:58;;;;;;;23.97;14.27;;;-0.40;99.90;;;;;;4994268;28;20193;-42
2023/01/22 07:54:24;;;;;;;25.13;15.20;;;-0.30;99.90;;;;;;4994259;28;20292;-42
2023/01/22 07:56:49;;;;;;;25.10;16.17;;;-0.30;99.90;;;;;;4977755;28;20260;-42
2023/01/22 07:59:15;;;;;;;26.73;16.30;;;-0.30;99.90;;;;;;4969625;28;20292;-42
2023/01/22 08:01:41;;;;;;;23.57;14.27;;;-0.40;99.90;;;;;;4976152;28;20209;-42
2023/01/22 08:04:07;;;;;;;25.13;14.37;;;-0.40;99.90;;;;;;4975826;28;20206;-41
2023/01/22 08:06:32;;;;;;;23.53;15.33;;;-0.40;99.90;;;;;;4958648;28;20186;-42
2023/01/22 08:08:58;;;;;;;24.93;15.27;;;-0.30;99.90;;;;;;4958218;28;20244;-42
2023/01/22 08:11:26;;;;;;;27.33;17.10;;;-0.30;99.90;;;;;;4975548;28;20229;-42
2023/01/22 08:13:53;;;;;;;26.33;17.63;;;-0.20;99.90;;;;;;4957964;28;20215;-43
2023/01/22 08:16:20;;;;;;;26.93;17.20;;;-0.20;99.90;;;;;;4958024;28;20164;-40
2023/01/22 08:18:46;;;;;;;31.27;19.07;;;-0.20;99.90;;;;;;4958026;28;20269;-42
2023/01/22 08:21:11;;;;;;;31.63;19.97;;;-0.10;99.90;;;;;;4975614;28;20262;-42
2023/01/22 08:23:37;;;;;;;31.33;19.53;;;-0.10;99.90;;;;;;4957954;28;20203;-42
2023/01/22 08:26:03;;;;;;;30.57;18.93;;;0.00;99.90;;;;;;4965414;28;20183;-42
2023/01/22 08:28:30;;;;;;;28.40;18.07;;;0.00;99.90;;;;;;4974604;28;20230;-42
2023/01/22 08:30:57;;;;;;;26.93;17.23;;;0.10;99.90;;;;;;4981495;28;20191;-38
2023/01/22 08:33:24;;;;;;;27.60;16.97;;;0.10;99.90;;;;;;4957884;28;20246;-39
2023/01/22 08:35:50;;;;;;;30.43;17.40;;;0.10;99.90;;;;;;4942088;28;20183;-39
2023/01/22 08:38:15;;;;;;;24.73;15.93;;;0.20;99.90;;;;;;4958510;28;20190;-42
2023/01/22 08:40:41;;;;;;;24.80;15.10;;;0.30;99.90;;;;;;4974759;28;20200;-42
2023/01/22 08:43:07;;;;;;;28.73;16.73;;;0.30;99.90;;;;;;4957831;28;20310;-42
2023/01/22 08:45:33;;;;;;;24.30;14.77;;;0.40;99.90;;;;;;4974952;28;20269;-41
2023/01/22 08:47:59;;;;;;;25.03;14.83;;;0.40;99.90;;;;;;4957792;28;20212;-41
2023/01/22 08:50:26;;;;;;;24.43;14.97;;;0.40;99.90;;;;;;4974765;28;20250;-40
2023/01/22 08:52:55;;;;;;;25.27;15.77;;;0.40;99.90;;;;;;4956754;28;20207;-42
2023/01/22 08:55:21;;;;;;;26.40;15.63;;;0.50;99.90;;;;;;4957469;28;20183;-40
2023/01/22 08:57:52;;;;;;;23.93;14.80;;;0.50;99.90;;;;;;4965872;28;20185;-42
2023/01/22 09:00:18;;;;;;;24.20;14.93;;;0.50;99.90;;;;;;4984403;28;20315;-42
2023/01/22 09:02:44;;;;;;;25.10;15.00;;;0.50;99.90;;;;;;4993001;28;20213;-42
2023/01/22 09:05:10;;;;;;;25.20;14.63;;;0.50;99.90;;;;;;4992929;28;20187;-39
2023/01/22 09:07:35;;;;;;;27.50;17.20;;;0.50;99.90;;;;;;4976345;28;20338;-42
2023/01/22 09:10:03;;;;;;;27.63;16.17;;;0.50;99.90;;;;;;4992777;28;20187;-42
2023/01/22 09:12:28;;;;;;;23.93;15.33;;;0.60;99.90;;;;;;4976404;28;20187;-40
2023/01/22 09:14:54;;;;;;;24.67;15.37;;;0.60;99.90;;;;;;4994002;28;20202;-40
2023/01/22 09:17:20;;;;;;;25.93;15.80;;;0.70;99.90;;;;;;4992902;28;20187;-38
2023/01/22 09:19:46;;;;;;;25.17;16.20;;;0.70;99.90;;;;;;4976205;28;20194;-40
2023/01/22 09:22:11;;;;;;;28.83;18.27;;;0.80;99.90;;;;;;4994125;28;20238;-42
2023/01/22 09:24:37;;;;;;;26.60;16.87;;;0.80;99.90;;;;;;4993737;28;20203;-40
2023/01/22 09:27:03;;;;;;;26.57;17.00;;;0.90;99.90;;;;;;4993609;28;20183;-40
2023/01/22 09:29:28;;;;;;;27.07;16.17;;;0.90;99.90;;;;;;4982620;28;20184;-43
2023/01/22 09:31:55;;;;;;;26.37;16.20;;;1.00;99.90;;;;;;4974452;28;20203;-42
2023/01/22 09:34:21;;;;;;;28.93;15.80;;;1.00;99.90;;;;;;4956909;28;20263;-43
2023/01/22 09:36:47;;;;;;;29.83;17.40;;;1.10;99.90;;;;;;4975523;28;20211;-43
2023/01/22 09:39:13;;;;;;;26.70;16.73;;;1.10;99.90;;;;;;4957733;28;20187;-42
2023/01/22 09:41:43;;;;;;;28.00;16.40;;;1.00;99.90;;;;;;4957406;28;20191;-43
2023/01/22 09:44:25;;;;;;;25.00;15.17;;;1.10;99.90;;;;;;4957166;28;20207;-42
2023/01/22 09:46:55;;;;;;;28.67;17.00;;;1.20;99.90;;;;;;4956431;28;20282;-43
2023/01/22 09:49:29;;;;;;;29.17;17.00;;;1.30;99.90;;;;;;4956873;28;20181;-42
2023/01/22 09:51:58;;;;;;;24.97;16.83;;;1.40;99.90;;;;;;4956709;28;20192;-42
2023/01/22 09:54:24;;;;;;;26.07;15.13;;;1.50;99.90;;;;;;4972097;28;20214;-43
2023/01/22 09:56:52;;;;;;;24.10;14.10;;;1.50;99.90;;;;;;4974396;28;20270;-42
2023/01/22 09:59:25;;;;;;;24.63;15.13;;;1.50;99.90;;;;;;4951334;28;20187;-43
2023/01/22 10:01:55;;;;;;;22.60;13.33;;;1.60;99.90;;;;;;4956295;28;20195;-41
2023/01/22 10:04:44;;;;;;;21.70;13.97;;;1.70;99.90;;;;;;4972080;28;20216;-42
2023/01/22 10:07:38;;;;;;;20.30;13.07;;;1.80;99.90;;;;;;4972497;28;20189;-42
2023/01/22 10:10:21;;;;;;;22.00;13.23;;;2.00;99.90;;;;;;4971659;28;20224;-42
2023/01/22 10:13:22;;;;;;;21.63;13.47;;;2.00;99.90;;;;;;4971856;28;20200;-43
2023/01/22 10:15:52;;;;;;;17.93;11.50;;;1.90;99.90;;;;;;4973353;28;20269;-42
2023/01/22 10:18:30;;;;;;;18.70;12.57;;;1.90;99.90;;;;;;4956017;28;20580;-42
2023/01/22 10:21:00;;;;;;;20.30;12.30;;;2.00;99.90;;;;;;4973346;28;20180;-41
2023/01/22 10:23:26;;;;;;;16.70;11.20;;;2.20;99.90;;;;;;4971813;28;20208;-43
2023/01/22 10:26:06;;;;;;;18.83;12.07;;;2.30;99.90;;;;;;4955933;28;20712;-42
2023/01/22 10:28:32;;;;;;;16.23;11.17;;;2.50;99.90;;;;;;4972537;28;20225;-42
2023/01/22 10:30:57;;;;;;;16.63;11.23;;;2.60;99.90;;;;;;4968427;28;20187;-42
2023/01/22 10:33:25;;;;;;;18.60;11.70;;;2.70;99.90;;;;;;4974614;28;20309;-42
2023/01/22 10:35:55;;;;;;;15.17;10.20;;;2.80;99.90;;;;;;4974944;28;20183;-42
2023/01/22 10:38:31;;;;;;;16.87;10.37;;;2.80;99.90;;;;;;4991376;28;20243;-43
2023/01/22 10:41:00;;;;;;;15.20;10.27;;;2.70;99.90;;;;;;4974786;28;20219;-43
2023/01/22 10:43:30;;;;;;;15.10;10.60;;;2.70;99.90;;;;;;4992178;28;20199;-43
2023/01/22 10:46:03;;;;;;;26.93;17.17;;;2.80;99.90;;;;;;4975077;28;20385;-43
2023/01/22 10:48:29;;;;;;;24.63;16.10;;;2.70;99.90;;;;;;4991455;28;20191;-42
2023/01/22 10:51:13;;;;;;;21.53;14.60;;;2.70;99.90;;;;;;4974589;28;20191;-42
2023/01/22 10:53:54;;;;;;;23.03;15.03;;;2.50;99.90;;;;;;4974605;28;20254;-43
2023/01/22 10:56:33;;;;;;;22.50;14.77;;;2.50;99.90;;;;;;4974467;28;20202;-38
2023/01/22 10:59:19;;;;;;;25.70;16.37;;;2.50;99.90;;;;;;4973387;28;20271;-41
2023/01/22 11:01:47;;;;;;;31.07;17.63;;;2.50;99.90;;;;;;4972518;28;20176;-38
2023/01/22 11:04:19;;;;;;;26.23;16.40;;;2.50;99.90;;;;;;4971481;28;20204;-39
2023/01/22 11:07:12;;;;;;;27.17;17.43;;;2.50;99.90;;;;;;4955332;28;20177;-41
2023/01/22 11:09:46;;;;;;;29.33;17.20;;;2.40;99.90;;;;;;4971932;28;20408;-41
2023/01/22 11:12:32;;;;;;;22.10;15.27;;;2.40;99.90;;;;;;4971318;28;20180;-39
2023/01/22 11:15:36;;;;;;;24.03;14.97;;;2.30;99.90;;;;;;4970699;28;20246;-38
2023/01/22 11:18:04;;;;;;;27.27;15.80;;;2.20;99.90;;;;;;4971557;28;20240;-39
2023/01/22 11:20:56;;;;;;;29.20;16.13;;;2.20;99.90;;;;;;4954647;28;20203;-40
2023/01/22 11:23:59;;;;;;;29.60;17.60;;;2.20;99.90;;;;;;4971883;28;20271;-36
2023/01/22 11:26:40;;;;;;;26.07;16.23;;;2.20;99.90;;;;;;4972794;28;20188;-42
2023/01/22 11:29:18;;;;;;;25.13;15.60;;;2.10;99.90;;;;;;4983131;28;20314;-40
2023/01/22 11:31:59;;;;;;;28.23;15.83;;;2.10;99.90;;;;;;4971144;28;20183;-43
2023/01/22 11:34:56;;;;;;;23.83;15.03;;;2.20;99.90;;;;;;4970882;28;20220;-43
2023/01/22 11:37:35;;;;;;;25.43;14.13;;;2.20;99.90;;;;;;4954450;28;20212;-43
2023/01/22 11:40:27;;;;;;;24.60;15.37;;;2.20;99.90;;;;;;4972114;28;20239;-42
2023/01/22 11:43:08;;;;;;;25.07;14.50;;;2.20;99.90;;;;;;4972242;28;20201;-43
2023/01/22 11:45:52;;;;;;;24.07;14.73;;;2.20;99.90;;;;;;4954639;28;20187;-42
2023/01/22 11:48:33;;;;;;;23.40;14.30;;;2.20;99.90;;;;;;4972767;28;20216;-42
2023/01/22 11:51:32;;;;;;;21.73;13.20;;;2.20;99.90;;;;;;4972070;28;20283;-43
2023/01/22 11:54:11;;;;;;;22.87;13.40;;;2.30;99.90;;;;;;4971794;28;20327;-42
2023/01/22 11:57:11;;;;;;;26.87;14.00;;;2.30;99.90;;;;;;4954801;28;20192;-42
2023/01/22 12:00:05;;;;;;;21.60;12.83;;;2.20;99.90;;;;;;4983092;28;20180;-42
2023/01/22 12:02:55;;;;;;;24.03;14.93;;;2.10;99.90;;;;;;4973831;28;20238;-42
2023/01/22 12:05:36;;;;;;;26.57;15.97;;;2.10;99.90;;;;;;4973238;28;20191;-43
2023/01/22 12:08:19;;;;;;;27.00;15.93;;;2.10;99.90;;;;;;4981836;28;20223;-43
2023/01/22 12:11:30;;;;;;;25.27;15.13;;;2.10;99.90;;;;;;4973867;28;20243;-39
2023/01/22 12:14:10;;;;;;;29.03;16.97;;;2.20;99.90;;;;;;4969961;28;20235;-43
2023/01/22 12:16:36;;;;;;;26.63;15.07;;;2.10;99.90;;;;;;4957862;28;20186;-42
2023/01/22 12:19:15;;;;;;;24.67;15.00;;;2.00;99.90;;;;;;4981151;28;20172;-38
2023/01/22 12:21:59;;;;;;;24.73;15.40;;;2.10;99.90;;;;;;4978111;28;20184;-40
2023/01/22 12:24:57;;;;;;;25.53;16.20;;;2.10;99.90;;;;;;4972804;28;20196;-39
2023/01/22 12:27:39;;;;;;;30.33;16.67;;;2.20;99.90;;;;;;4984513;28;20185;-38
2023/01/22 12:30:23;;;;;;;30.83;16.90;;;2.20;99.90;;;;;;4981267;28;20176;-40
2023/01/22 12:32:56;;;;;;;22.50;14.43;;;2.20;99.90;;;;;;4974565;28;20265;-40
2023/01/22 12:35:24;;;;;;;20.50;13.13;;;2.20;99.90;;;;;;4993523;28;20235;-40
2023/01/22 12:38:30;;;;;;;23.50;14.10;;;2.20;99.90;;;;;;4994112;28;20271;-39
2023/01/22 12:41:31;;;;;;;23.30;14.57;;;2.30;99.90;;;;;;4984409;28;20180;-37
2023/01/22 12:44:09;;;;;;;23.27;14.13;;;2.20;99.90;;;;;;4993231;28;20195;-40
2023/01/22 12:46:39;;;;;;;21.33;13.87;;;2.20;99.90;;;;;;4976437;28;20637;-38
2023/01/22 12:49:06;;;;;;;22.63;13.93;;;2.10;99.90;;;;;;4994236;28;20179;-38
2023/01/22 12:51:41;;;;;;;22.87;13.70;;;2.10;99.90;;;;;;4976720;28;20731;-38
2023/01/22 12:54:24;;;;;;;22.23;14.70;;;2.00;99.90;;;;;;4981212;28;20215;-39
2023/01/22 12:56:52;;;;;;;22.63;14.33;;;2.00;99.90;;;;;;4981830;28;20180;-36
2023/01/22 12:59:37;;;;;;;24.03;14.70;;;1.90;99.90;;;;;;4982776;28;20176;-41